Airfield :
LOGIN :

Register | Disclaimer

   EN    FR    IT 

 










Legend :    VFR   Marginal VFR   IFR   Intensive IFR   Very Intensive IFR
Visi :
Ceiling :
>= 8 km
>= 3000ft
5 to 8 km
1000 to 3000 ft
1500m to 5 km
500 to 1000 ft
800 to 1500m
200 to 500 ft
< 800m
< 200 ft
Symbols :   Thunderstorms  Fog  Heavy snow  Heavy precipitations  Wind > 20 kt
SIGMETs :     Misc.  Thunderstorms  Icing  Turbulence  Mountain Waves  Volcanic Ashes






- Airport Elevation : 1860 ft
- IATA code : GRX


LEGR - Granada

CURRENT METAR :
  • 231730Z 21008KT 9999 FEW095 20/10 Q1021

EXPIRED METARs :
  • 231700Z 18007KT 150V210 9999 FEW060 SCT095 20/11 Q1021
  • 231630Z 17008KT 9999 FEW065 BKN095 21/10 Q1020
  • 231600Z 16003KT 070V210 9999 FEW065 BKN080 22/09 Q1020
  • 231530Z VRB02KT 9999 FEW070 BKN090 22/06 Q1020
  • 231500Z 19005KT 130V220 9999 FEW050 BKN100 23/06 Q1020

TAF TAF LEGR
Valid from the 23 at 12:00 until the 24 at 12:00 UTC


231100Z 2312/2412 VRB02KT 9999 SCT050 TX23/2315Z TN06/2406Z
TEMPO 2316/2320 20010KT
PROB30
TEMPO 2403/2407 3000 BR



MET'MAP, your aeronautical weather chart ! - Copyright ORBIFLY December 2007 - Disclaimer

ORBIFLY MET'MAP TEAM :

Programming & Development : Alexandra Zaïnal
Concept & original design : Baudouin d'Aumeries
Assistance for programming : Marc-Olivier Méhu
Technical & hardware support : Manuel Goepfert

Contact : metmap@orbifly.com




SOURCES & CREDITS :

   NOAA